Fruitvale, TN (38336)

13:45 CDT le 28 septembre 2016 (GMT -0500)
Couch Farms | | Change Station

Alt. 469 ft 35.60 °N, 88.96 °W | Updated 2 minutes ago

Partly Cloudy
Partiellement nuageux
86.0 ° F
Paraît 84 ° F
N
3.0
Vent Variable Vent de OSO
Gusts 15.0 mph

Aujourd'hui
Haut(e) -- | Bas -- ° F
--% Risque de précip.
Hier
Haut(e) -- | Bas -- ° F
Precip. -- pouce
Pression 29.87 pouce
Visibilité 10.0 Miles terrestres
Nuages Peu 11000 ft
indice de chaleur 84 ° F
Point de rosée 50 ° F
Humidité 29%
Précipitations 0.00 pouce
Profondeur de la couche neigeuse Non disponible.
6:49 AM 6:43 PM
Lune descendante, 5% visible
METAR KHKA 281753Z AUTO 28011G17KT 10SM FEW110 30/13 A2988 RMK AO2 SLP115 T03000128 10300 20139 56008
Pression 29.87 pouce
Visibilité 10.0 Miles terrestres
Nuages Peu 11000 ft
indice de chaleur 84 ° F
Point de rosée 50 ° F
Humidité 29%
Précipitations 0.00 pouce
Profondeur de la couche neigeuse Non disponible.
6:49 AM 6:43 PM
Lune descendante, 5% visible
METAR KHKA 281753Z AUTO 28011G17KT 10SM FEW110 30/13 A2988 RMK AO2 SLP115 T03000128 10300 20139 56008

10-Day Weather Forecast

Almanac

Astronomie

Sep. 28, 2016 Lever Coucher
Temps réel
Crépuscule civil
Crépuscule nautique
Crépuscule astronomique
Lune
Durée de lumière visible
Longueur du jour
Tomorrow will be .
, % of the Moon is Illuminated

Extrêmes aujourd'hui

State Highs State Lows

Community

WunderPhotos

Upload Photos

1,942,297 Photos téléchargées !

WunderBlog® & News

Nearby

Qualité de l'air

  Qualité de l'air Indice de la qualité de l'air Polluant
Not available.

Épaisseur de neige

Station Depth Altitude

Activité sismique

Ville Distance Mag. Time & Date
Minimum magnitude displayed is 2.5.

Températures des eaux côtières

Lieu Température

Stations

Stations météo à proximité

Emplacement de la station Température Refroidissement éolien Point de rosée Humidité Vent Precip. Alt. Mise à jour Type
                   

Watches & Warnings

There are currently no watches in effect.